sensor_id;sensor_type;location;lat;lon;timestamp;P1;durP1;ratioP1;P2;durP2;ratioP2
50585;SDS011;36542;51.700;8.846;2022-12-07T00:00:28;1002.80;;;132.17;;
50585;SDS011;36542;51.700;8.846;2022-12-07T00:02:53;852.47;;;126.30;;
50585;SDS011;36542;51.700;8.846;2022-12-07T00:05:18;1055.40;;;143.80;;
50585;SDS011;36542;51.700;8.846;2022-12-07T00:07:44;1022.27;;;138.73;;
50585;SDS011;36542;51.700;8.846;2022-12-07T00:10:10;1195.83;;;157.07;;
50585;SDS011;36542;51.700;8.846;2022-12-07T00:12:35;1336.00;;;171.50;;
50585;SDS011;36542;51.700;8.846;2022-12-07T00:15:01;1345.57;;;177.17;;
50585;SDS011;36542;51.700;8.846;2022-12-07T00:17:26;1438.43;;;181.43;;
50585;SDS011;36542;51.700;8.846;2022-12-07T00:19:52;1427.97;;;180.57;;
50585;SDS011;36542;51.700;8.846;2022-12-07T00:22:17;1472.60;;;188.27;;
50585;SDS011;36542;51.700;8.846;2022-12-07T00:24:43;1528.90;;;206.40;;
50585;SDS011;36542;51.700;8.846;2022-12-07T00:27:08;1485.00;;;194.97;;
50585;SDS011;36542;51.700;8.846;2022-12-07T00:29:34;1493.37;;;199.63;;
50585;SDS011;36542;51.700;8.846;2022-12-07T00:32:01;1463.30;;;192.83;;
50585;SDS011;36542;51.700;8.846;2022-12-07T00:34:27;1439.83;;;181.70;;
50585;SDS011;36542;51.700;8.846;2022-12-07T00:36:53;1384.57;;;191.83;;
50585;SDS011;36542;51.700;8.846;2022-12-07T00:39:18;1573.53;;;208.50;;
50585;SDS011;36542;51.700;8.846;2022-12-07T00:41:44;1527.57;;;204.37;;
50585;SDS011;36542;51.700;8.846;2022-12-07T00:44:09;1181.73;;;178.13;;
50585;SDS011;36542;51.700;8.846;2022-12-07T00:46:35;1437.03;;;194.50;;
50585;SDS011;36542;51.700;8.846;2022-12-07T00:49:01;1662.93;;;217.20;;
50585;SDS011;36542;51.700;8.846;2022-12-07T00:51:26;1388.10;;;191.50;;
50585;SDS011;36542;51.700;8.846;2022-12-07T00:53:52;1544.60;;;212.17;;
50585;SDS011;36542;51.700;8.846;2022-12-07T00:56:19;1498.90;;;210.63;;
50585;SDS011;36542;51.700;8.846;2022-12-07T00:58:49;1461.97;;;204.67;;
50585;SDS011;36542;51.700;8.846;2022-12-07T01:01:26;1686.10;;;234.17;;
50585;SDS011;36542;51.700;8.846;2022-12-07T01:03:53;1481.23;;;206.30;;
50585;SDS011;36542;51.700;8.846;2022-12-07T01:06:20;1441.27;;;206.30;;
50585;SDS011;36542;51.700;8.846;2022-12-07T01:08:47;1566.83;;;215.40;;
50585;SDS011;36542;51.700;8.846;2022-12-07T01:11:15;1652.43;;;218.13;;
50585;SDS011;36542;51.700;8.846;2022-12-07T01:13:43;1686.80;;;231.07;;
50585;SDS011;36542;51.700;8.846;2022-12-07T01:16:09;1715.53;;;224.83;;
50585;SDS011;36542;51.700;8.846;2022-12-07T01:18:38;1509.57;;;218.47;;
50585;SDS011;36542;51.700;8.846;2022-12-07T01:21:05;1482.60;;;205.30;;
50585;SDS011;36542;51.700;8.846;2022-12-07T01:23:32;1615.17;;;228.30;;
50585;SDS011;36542;51.700;8.846;2022-12-07T01:26:00;1390.47;;;198.00;;
50585;SDS011;36542;51.700;8.846;2022-12-07T01:28:28;1535.97;;;202.00;;
50585;SDS011;36542;51.700;8.846;2022-12-07T01:31:00;1440.40;;;196.07;;
50585;SDS011;36542;51.700;8.846;2022-12-07T01:33:32;1572.70;;;209.23;;
50585;SDS011;36542;51.700;8.846;2022-12-07T01:36:03;1667.40;;;226.27;;
50585;SDS011;36542;51.700;8.846;2022-12-07T01:38:30;1396.90;;;197.83;;
50585;SDS011;36542;51.700;8.846;2022-12-07T01:40:57;1817.60;;;260.10;;
50585;SDS011;36542;51.700;8.846;2022-12-07T01:43:24;1524.97;;;209.27;;
50585;SDS011;36542;51.700;8.846;2022-12-07T01:45:52;1693.67;;;237.47;;
50585;SDS011;36542;51.700;8.846;2022-12-07T01:48:19;1489.87;;;203.43;;
50585;SDS011;36542;51.700;8.846;2022-12-07T01:50:59;1458.67;;;206.97;;
50585;SDS011;36542;51.700;8.846;2022-12-07T01:53:29;1725.50;;;235.90;;
50585;SDS011;36542;51.700;8.846;2022-12-07T01:55:55;1666.43;;;221.00;;
50585;SDS011;36542;51.700;8.846;2022-12-07T01:58:22;507.67;;;105.30;;
50585;SDS011;36542;51.700;8.846;2022-12-07T02:00:49;1283.07;;;178.67;;
50585;SDS011;36542;51.700;8.846;2022-12-07T02:03:16;1322.20;;;185.50;;
50585;SDS011;36542;51.700;8.846;2022-12-07T02:05:43;1422.80;;;189.57;;
50585;SDS011;36542;51.700;8.846;2022-12-07T02:08:10;593.53;;;109.43;;
50585;SDS011;36542;51.700;8.846;2022-12-07T02:10:36;1307.90;;;181.20;;
50585;SDS011;36542;51.700;8.846;2022-12-07T02:13:23;1501.80;;;205.47;;
50585;SDS011;36542;51.700;8.846;2022-12-07T02:24:59;1478.27;;;202.03;;
50585;SDS011;36542;51.700;8.846;2022-12-07T02:30:10;1348.33;;;185.97;;
50585;SDS011;36542;51.700;8.846;2022-12-07T02:35:33;1081.10;;;162.20;;
50585;SDS011;36542;51.700;8.846;2022-12-07T02:38:13;1077.47;;;150.73;;
50585;SDS011;36542;51.700;8.846;2022-12-07T02:43:39;1121.40;;;162.53;;
50585;SDS011;36542;51.700;8.846;2022-12-07T02:46:11;1134.37;;;159.77;;
50585;SDS011;36542;51.700;8.846;2022-12-07T02:48:41;1079.50;;;156.50;;
50585;SDS011;36542;51.700;8.846;2022-12-07T02:51:08;1249.80;;;169.83;;
50585;SDS011;36542;51.700;8.846;2022-12-07T02:53:35;1350.20;;;177.10;;
50585;SDS011;36542;51.700;8.846;2022-12-07T02:59:15;1106.83;;;158.97;;
50585;SDS011;36542;51.700;8.846;2022-12-07T03:01:47;1260.20;;;167.03;;
50585;SDS011;36542;51.700;8.846;2022-12-07T03:04:38;905.27;;;137.03;;
50585;SDS011;36542;51.700;8.846;2022-12-07T03:07:21;429.33;;;85.83;;
50585;SDS011;36542;51.700;8.846;2022-12-07T03:10:07;522.87;;;99.50;;
50585;SDS011;36542;51.700;8.846;2022-12-07T03:13:05;736.50;;;116.47;;
50585;SDS011;36542;51.700;8.846;2022-12-07T03:15:43;919.93;;;133.90;;
50585;SDS011;36542;51.700;8.846;2022-12-07T03:18:14;626.30;;;105.87;;
50585;SDS011;36542;51.700;8.846;2022-12-07T03:20:43;541.90;;;98.93;;
50585;SDS011;36542;51.700;8.846;2022-12-07T03:23:11;603.17;;;105.13;;
50585;SDS011;36542;51.700;8.846;2022-12-07T03:25:39;796.97;;;123.57;;
50585;SDS011;36542;51.700;8.846;2022-12-07T03:28:08;293.53;;;76.23;;
50585;SDS011;36542;51.700;8.846;2022-12-07T03:30:39;263.43;;;70.07;;
50585;SDS011;36542;51.700;8.846;2022-12-07T03:33:14;534.67;;;95.20;;
50585;SDS011;36542;51.700;8.846;2022-12-07T03:36:07;446.23;;;88.67;;
50585;SDS011;36542;51.700;8.846;2022-12-07T03:38:45;594.13;;;101.47;;
50585;SDS011;36542;51.700;8.846;2022-12-07T03:41:16;676.03;;;109.83;;
50585;SDS011;36542;51.700;8.846;2022-12-07T03:43:47;239.43;;;65.17;;
50585;SDS011;36542;51.700;8.846;2022-12-07T03:51:55;163.43;;;52.87;;
50585;SDS011;36542;51.700;8.846;2022-12-07T03:54:42;172.13;;;51.00;;
50585;SDS011;36542;51.700;8.846;2022-12-07T03:57:16;181.93;;;51.20;;
50585;SDS011;36542;51.700;8.846;2022-12-07T03:59:43;191.87;;;55.90;;
50585;SDS011;36542;51.700;8.846;2022-12-07T04:02:10;179.67;;;54.47;;
50585;SDS011;36542;51.700;8.846;2022-12-07T04:04:37;158.23;;;50.73;;
50585;SDS011;36542;51.700;8.846;2022-12-07T04:07:03;151.90;;;46.13;;
50585;SDS011;36542;51.700;8.846;2022-12-07T04:09:28;149.80;;;47.07;;
50585;SDS011;36542;51.700;8.846;2022-12-07T04:11:54;162.13;;;49.17;;
50585;SDS011;36542;51.700;8.846;2022-12-07T04:14:19;142.17;;;46.13;;
50585;SDS011;36542;51.700;8.846;2022-12-07T04:16:49;128.10;;;43.43;;
50585;SDS011;36542;51.700;8.846;2022-12-07T04:19:17;133.47;;;43.43;;
50585;SDS011;36542;51.700;8.846;2022-12-07T04:21:44;127.63;;;42.40;;
50585;SDS011;36542;51.700;8.846;2022-12-07T04:24:11;119.90;;;42.27;;
50585;SDS011;36542;51.700;8.846;2022-12-07T04:26:38;129.63;;;42.87;;
50585;SDS011;36542;51.700;8.846;2022-12-07T04:29:03;133.60;;;43.37;;
50585;SDS011;36542;51.700;8.846;2022-12-07T04:31:29;116.43;;;42.10;;
50585;SDS011;36542;51.700;8.846;2022-12-07T04:33:56;113.90;;;40.13;;
50585;SDS011;36542;51.700;8.846;2022-12-07T04:36:21;133.50;;;42.13;;
50585;SDS011;36542;51.700;8.846;2022-12-07T04:38:47;104.30;;;37.57;;
50585;SDS011;36542;51.700;8.846;2022-12-07T04:41:12;120.00;;;38.20;;
50585;SDS011;36542;51.700;8.846;2022-12-07T04:43:38;86.43;;;35.10;;
50585;SDS011;36542;51.700;8.846;2022-12-07T04:46:04;94.20;;;34.37;;
50585;SDS011;36542;51.700;8.846;2022-12-07T04:48:30;92.13;;;34.30;;
50585;SDS011;36542;51.700;8.846;2022-12-07T04:50:56;107.90;;;37.23;;
50585;SDS011;36542;51.700;8.846;2022-12-07T04:53:22;94.20;;;35.60;;
50585;SDS011;36542;51.700;8.846;2022-12-07T04:55:47;100.77;;;35.07;;
50585;SDS011;36542;51.700;8.846;2022-12-07T04:58:13;86.07;;;32.97;;
50585;SDS011;36542;51.700;8.846;2022-12-07T05:00:40;87.70;;;31.63;;
50585;SDS011;36542;51.700;8.846;2022-12-07T05:03:06;90.00;;;32.50;;
50585;SDS011;36542;51.700;8.846;2022-12-07T05:05:31;66.53;;;28.47;;
50585;SDS011;36542;51.700;8.846;2022-12-07T05:07:57;79.60;;;30.53;;
50585;SDS011;36542;51.700;8.846;2022-12-07T05:10:23;76.47;;;29.37;;
50585;SDS011;36542;51.700;8.846;2022-12-07T05:12:48;77.20;;;29.83;;
50585;SDS011;36542;51.700;8.846;2022-12-07T05:15:14;75.50;;;29.63;;
50585;SDS011;36542;51.700;8.846;2022-12-07T05:17:40;82.30;;;31.63;;
50585;SDS011;36542;51.700;8.846;2022-12-07T05:20:06;83.23;;;31.63;;
50585;SDS011;36542;51.700;8.846;2022-12-07T05:22:32;87.33;;;32.20;;
50585;SDS011;36542;51.700;8.846;2022-12-07T05:24:57;92.23;;;32.97;;
50585;SDS011;36542;51.700;8.846;2022-12-07T05:27:23;94.97;;;35.00;;
50585;SDS011;36542;51.700;8.846;2022-12-07T05:29:51;116.83;;;38.03;;
50585;SDS011;36542;51.700;8.846;2022-12-07T05:32:17;104.07;;;36.10;;
50585;SDS011;36542;51.700;8.846;2022-12-07T05:34:42;106.10;;;36.07;;
50585;SDS011;36542;51.700;8.846;2022-12-07T05:37:08;118.80;;;40.27;;
50585;SDS011;36542;51.700;8.846;2022-12-07T05:39:34;112.03;;;39.00;;
50585;SDS011;36542;51.700;8.846;2022-12-07T05:41:59;128.33;;;40.87;;
50585;SDS011;36542;51.700;8.846;2022-12-07T05:44:37;114.90;;;39.43;;
50585;SDS011;36542;51.700;8.846;2022-12-07T05:47:07;112.83;;;38.60;;
50585;SDS011;36542;51.700;8.846;2022-12-07T05:49:33;91.10;;;33.37;;
50585;SDS011;36542;51.700;8.846;2022-12-07T05:51:59;93.10;;;34.77;;
50585;SDS011;36542;51.700;8.846;2022-12-07T05:54:25;91.30;;;34.93;;
50585;SDS011;36542;51.700;8.846;2022-12-07T05:56:51;104.90;;;37.17;;
50585;SDS011;36542;51.700;8.846;2022-12-07T05:59:16;98.43;;;36.27;;
50585;SDS011;36542;51.700;8.846;2022-12-07T06:01:48;88.53;;;33.03;;
50585;SDS011;36542;51.700;8.846;2022-12-07T06:04:22;82.60;;;34.47;;
50585;SDS011;36542;51.700;8.846;2022-12-07T06:06:49;89.97;;;35.17;;
50585;SDS011;36542;51.700;8.846;2022-12-07T06:09:15;103.93;;;37.40;;
50585;SDS011;36542;51.700;8.846;2022-12-07T06:11:41;94.57;;;34.57;;
50585;SDS011;36542;51.700;8.846;2022-12-07T06:14:25;107.07;;;39.53;;
50585;SDS011;36542;51.700;8.846;2022-12-07T06:16:50;110.90;;;38.93;;
50585;SDS011;36542;51.700;8.846;2022-12-07T06:19:16;94.57;;;37.20;;
50585;SDS011;36542;51.700;8.846;2022-12-07T06:21:42;94.10;;;34.63;;
50585;SDS011;36542;51.700;8.846;2022-12-07T06:24:09;99.10;;;36.03;;
50585;SDS011;36542;51.700;8.846;2022-12-07T06:26:36;98.70;;;37.37;;
50585;SDS011;36542;51.700;8.846;2022-12-07T06:29:01;98.03;;;37.10;;
50585;SDS011;36542;51.700;8.846;2022-12-07T06:31:27;100.63;;;37.03;;
50585;SDS011;36542;51.700;8.846;2022-12-07T06:33:57;94.47;;;37.63;;
50585;SDS011;36542;51.700;8.846;2022-12-07T06:36:23;87.53;;;34.33;;
50585;SDS011;36542;51.700;8.846;2022-12-07T06:38:48;98.90;;;38.00;;
50585;SDS011;36542;51.700;8.846;2022-12-07T06:41:14;101.93;;;37.00;;
50585;SDS011;36542;51.700;8.846;2022-12-07T06:43:39;108.63;;;38.17;;
50585;SDS011;36542;51.700;8.846;2022-12-07T06:46:05;112.87;;;42.20;;
50585;SDS011;36542;51.700;8.846;2022-12-07T06:48:31;109.37;;;42.00;;
50585;SDS011;36542;51.700;8.846;2022-12-07T06:50:56;103.77;;;39.60;;
50585;SDS011;36542;51.700;8.846;2022-12-07T06:53:22;113.17;;;40.10;;
50585;SDS011;36542;51.700;8.846;2022-12-07T06:55:48;106.03;;;39.87;;
50585;SDS011;36542;51.700;8.846;2022-12-07T06:58:14;102.10;;;38.27;;
50585;SDS011;36542;51.700;8.846;2022-12-07T07:00:39;117.47;;;39.77;;
50585;SDS011;36542;51.700;8.846;2022-12-07T07:03:05;105.67;;;36.87;;
50585;SDS011;36542;51.700;8.846;2022-12-07T07:05:31;111.37;;;40.47;;
50585;SDS011;36542;51.700;8.846;2022-12-07T07:07:56;114.60;;;38.87;;
50585;SDS011;36542;51.700;8.846;2022-12-07T07:10:22;118.90;;;40.23;;
50585;SDS011;36542;51.700;8.846;2022-12-07T07:12:47;124.90;;;42.43;;
50585;SDS011;36542;51.700;8.846;2022-12-07T07:15:13;111.50;;;39.80;;
50585;SDS011;36542;51.700;8.846;2022-12-07T07:17:38;107.73;;;40.50;;
50585;SDS011;36542;51.700;8.846;2022-12-07T07:20:04;126.00;;;43.57;;
50585;SDS011;36542;51.700;8.846;2022-12-07T07:22:30;123.73;;;42.60;;
50585;SDS011;36542;51.700;8.846;2022-12-07T07:24:55;105.90;;;38.93;;
50585;SDS011;36542;51.700;8.846;2022-12-07T07:27:21;109.30;;;40.17;;
50585;SDS011;36542;51.700;8.846;2022-12-07T07:29:46;104.00;;;39.70;;
50585;SDS011;36542;51.700;8.846;2022-12-07T07:32:12;114.67;;;40.33;;
50585;SDS011;36542;51.700;8.846;2022-12-07T07:34:38;127.27;;;42.43;;
50585;SDS011;36542;51.700;8.846;2022-12-07T07:37:04;109.50;;;39.73;;
50585;SDS011;36542;51.700;8.846;2022-12-07T07:39:29;107.23;;;41.37;;
50585;SDS011;36542;51.700;8.846;2022-12-07T07:41:55;117.23;;;42.57;;
50585;SDS011;36542;51.700;8.846;2022-12-07T07:44:20;120.77;;;40.27;;
50585;SDS011;36542;51.700;8.846;2022-12-07T07:46:46;121.97;;;42.33;;
50585;SDS011;36542;51.700;8.846;2022-12-07T07:49:12;107.23;;;40.67;;
50585;SDS011;36542;51.700;8.846;2022-12-07T07:51:37;113.43;;;40.23;;
50585;SDS011;36542;51.700;8.846;2022-12-07T07:54:03;94.83;;;38.77;;
50585;SDS011;36542;51.700;8.846;2022-12-07T07:56:29;104.70;;;40.17;;
50585;SDS011;36542;51.700;8.846;2022-12-07T07:58:54;94.57;;;39.57;;
50585;SDS011;36542;51.700;8.846;2022-12-07T08:01:20;95.53;;;38.30;;
50585;SDS011;36542;51.700;8.846;2022-12-07T08:03:46;97.43;;;36.17;;
50585;SDS011;36542;51.700;8.846;2022-12-07T08:06:12;91.13;;;36.43;;
50585;SDS011;36542;51.700;8.846;2022-12-07T08:08:37;98.33;;;34.60;;
50585;SDS011;36542;51.700;8.846;2022-12-07T08:11:06;88.17;;;33.80;;
50585;SDS011;36542;51.700;8.846;2022-12-07T08:13:33;90.47;;;35.30;;
50585;SDS011;36542;51.700;8.846;2022-12-07T08:15:59;89.07;;;34.73;;
50585;SDS011;36542;51.700;8.846;2022-12-07T08:18:29;90.30;;;34.97;;
50585;SDS011;36542;51.700;8.846;2022-12-07T08:20:58;89.77;;;36.07;;
50585;SDS011;36542;51.700;8.846;2022-12-07T08:23:25;77.03;;;32.43;;
50585;SDS011;36542;51.700;8.846;2022-12-07T08:25:51;75.73;;;32.60;;
50585;SDS011;36542;51.700;8.846;2022-12-07T08:28:16;76.13;;;34.57;;
50585;SDS011;36542;51.700;8.846;2022-12-07T08:30:42;96.50;;;36.10;;
50585;SDS011;36542;51.700;8.846;2022-12-07T08:33:08;84.03;;;34.20;;
50585;SDS011;36542;51.700;8.846;2022-12-07T08:35:35;82.57;;;34.70;;
50585;SDS011;36542;51.700;8.846;2022-12-07T08:38:00;86.97;;;34.90;;
50585;SDS011;36542;51.700;8.846;2022-12-07T08:40:27;86.43;;;33.97;;
50585;SDS011;36542;51.700;8.846;2022-12-07T08:42:53;78.97;;;33.60;;
50585;SDS011;36542;51.700;8.846;2022-12-07T08:45:19;91.40;;;34.53;;
50585;SDS011;36542;51.700;8.846;2022-12-07T08:47:47;87.50;;;33.63;;
50585;SDS011;36542;51.700;8.846;2022-12-07T08:50:17;83.43;;;33.33;;
50585;SDS011;36542;51.700;8.846;2022-12-07T08:52:43;83.23;;;34.50;;
50585;SDS011;36542;51.700;8.846;2022-12-07T08:55:09;81.23;;;32.97;;
50585;SDS011;36542;51.700;8.846;2022-12-07T08:57:36;84.20;;;35.30;;
50585;SDS011;36542;51.700;8.846;2022-12-07T09:00:03;82.00;;;33.67;;
50585;SDS011;36542;51.700;8.846;2022-12-07T09:02:30;82.63;;;35.23;;
50585;SDS011;36542;51.700;8.846;2022-12-07T09:04:56;93.40;;;36.53;;
50585;SDS011;36542;51.700;8.846;2022-12-07T09:07:21;62.67;;;26.37;;
50585;SDS011;36542;51.700;8.846;2022-12-07T09:09:47;55.60;;;26.33;;
50585;SDS011;36542;51.700;8.846;2022-12-07T09:12:13;69.67;;;27.43;;
50585;SDS011;36542;51.700;8.846;2022-12-07T09:14:38;66.97;;;28.87;;
50585;SDS011;36542;51.700;8.846;2022-12-07T09:17:05;57.30;;;26.27;;
50585;SDS011;36542;51.700;8.846;2022-12-07T09:19:32;62.83;;;26.57;;
50585;SDS011;36542;51.700;8.846;2022-12-07T09:21:57;49.93;;;22.27;;
50585;SDS011;36542;51.700;8.846;2022-12-07T09:24:23;49.63;;;21.97;;
50585;SDS011;36542;51.700;8.846;2022-12-07T09:26:48;49.23;;;22.67;;
50585;SDS011;36542;51.700;8.846;2022-12-07T09:29:14;53.97;;;22.07;;
50585;SDS011;36542;51.700;8.846;2022-12-07T09:31:40;52.10;;;22.80;;
50585;SDS011;36542;51.700;8.846;2022-12-07T09:34:05;49.13;;;22.27;;
50585;SDS011;36542;51.700;8.846;2022-12-07T09:36:32;52.37;;;22.07;;
50585;SDS011;36542;51.700;8.846;2022-12-07T09:38:57;54.33;;;23.53;;
50585;SDS011;36542;51.700;8.846;2022-12-07T09:41:23;49.27;;;23.23;;
50585;SDS011;36542;51.700;8.846;2022-12-07T09:43:51;49.40;;;24.03;;
50585;SDS011;36542;51.700;8.846;2022-12-07T09:46:20;50.07;;;26.13;;
50585;SDS011;36542;51.700;8.846;2022-12-07T09:48:47;51.77;;;25.13;;
50585;SDS011;36542;51.700;8.846;2022-12-07T09:51:16;46.10;;;22.73;;
50585;SDS011;36542;51.700;8.846;2022-12-07T09:53:46;58.47;;;24.97;;
50585;SDS011;36542;51.700;8.846;2022-12-07T09:56:13;49.20;;;22.23;;
50585;SDS011;36542;51.700;8.846;2022-12-07T09:58:39;53.97;;;25.53;;
50585;SDS011;36542;51.700;8.846;2022-12-07T10:03:42;46.27;;;21.90;;
50585;SDS011;36542;51.700;8.846;2022-12-07T10:06:14;45.47;;;22.90;;
50585;SDS011;36542;51.700;8.846;2022-12-07T10:08:39;49.03;;;21.47;;
50585;SDS011;36542;51.700;8.846;2022-12-07T10:11:06;44.07;;;21.33;;
50585;SDS011;36542;51.700;8.846;2022-12-07T10:16:04;33.43;;;18.17;;
50585;SDS011;36542;51.700;8.846;2022-12-07T10:21:14;35.33;;;17.80;;
50585;SDS011;36542;51.700;8.846;2022-12-07T10:24:01;32.63;;;16.90;;
50585;SDS011;36542;51.700;8.846;2022-12-07T10:26:38;34.07;;;17.37;;
50585;SDS011;36542;51.700;8.846;2022-12-07T10:29:18;29.57;;;16.23;;
50585;SDS011;36542;51.700;8.846;2022-12-07T10:31:45;30.40;;;16.77;;
50585;SDS011;36542;51.700;8.846;2022-12-07T10:34:22;34.37;;;17.33;;
50585;SDS011;36542;51.700;8.846;2022-12-07T10:36:49;32.63;;;19.33;;
50585;SDS011;36542;51.700;8.846;2022-12-07T10:39:17;30.60;;;16.80;;
50585;SDS011;36542;51.700;8.846;2022-12-07T10:41:58;31.70;;;17.17;;
50585;SDS011;36542;51.700;8.846;2022-12-07T10:44:28;29.87;;;16.90;;
50585;SDS011;36542;51.700;8.846;2022-12-07T10:46:58;33.13;;;17.40;;
50585;SDS011;36542;51.700;8.846;2022-12-07T10:52:29;29.10;;;15.73;;
50585;SDS011;36542;51.700;8.846;2022-12-07T10:57:38;35.90;;;18.27;;
50585;SDS011;36542;51.700;8.846;2022-12-07T11:00:50;32.53;;;18.10;;
50585;SDS011;36542;51.700;8.846;2022-12-07T11:06:15;36.50;;;16.53;;
50585;SDS011;36542;51.700;8.846;2022-12-07T11:09:00;31.97;;;16.80;;
50585;SDS011;36542;51.700;8.846;2022-12-07T11:11:59;35.10;;;17.90;;
50585;SDS011;36542;51.700;8.846;2022-12-07T11:17:13;37.67;;;19.53;;
50585;SDS011;36542;51.700;8.846;2022-12-07T11:27:33;29.40;;;18.50;;
50585;SDS011;36542;51.700;8.846;2022-12-07T11:38:16;28.43;;;17.70;;
50585;SDS011;36542;51.700;8.846;2022-12-07T11:40:47;29.80;;;17.73;;
50585;SDS011;36542;51.700;8.846;2022-12-07T11:46:11;26.47;;;17.07;;
50585;SDS011;36542;51.700;8.846;2022-12-07T11:48:41;28.00;;;15.90;;
50585;SDS011;36542;51.700;8.846;2022-12-07T11:51:27;27.00;;;15.47;;
50585;SDS011;36542;51.700;8.846;2022-12-07T11:54:11;25.00;;;16.43;;
50585;SDS011;36542;51.700;8.846;2022-12-07T11:56:45;24.70;;;14.60;;
50585;SDS011;36542;51.700;8.846;2022-12-07T12:02:25;25.27;;;14.57;;
50585;SDS011;36542;51.700;8.846;2022-12-07T12:05:12;30.70;;;15.10;;
50585;SDS011;36542;51.700;8.846;2022-12-07T12:07:41;29.00;;;13.80;;
50585;SDS011;36542;51.700;8.846;2022-12-07T12:10:25;24.83;;;14.57;;
50585;SDS011;36542;51.700;8.846;2022-12-07T12:15:52;31.37;;;14.73;;
50585;SDS011;36542;51.700;8.846;2022-12-07T12:21:22;25.30;;;15.40;;
50585;SDS011;36542;51.700;8.846;2022-12-07T12:23:57;23.30;;;14.47;;
50585;SDS011;36542;51.700;8.846;2022-12-07T12:26:31;29.03;;;14.33;;
50585;SDS011;36542;51.700;8.846;2022-12-07T12:29:00;27.03;;;15.00;;
50585;SDS011;36542;51.700;8.846;2022-12-07T12:34:01;23.30;;;12.70;;
50585;SDS011;36542;51.700;8.846;2022-12-07T12:54:20;19.37;;;10.47;;
50585;SDS011;36542;51.700;8.846;2022-12-07T13:02:22;15.47;;;9.90;;
50585;SDS011;36542;51.700;8.846;2022-12-07T13:05:02;17.37;;;10.77;;
50585;SDS011;36542;51.700;8.846;2022-12-07T13:08:28;22.50;;;10.80;;
50585;SDS011;36542;51.700;8.846;2022-12-07T13:23:27;15.00;;;9.77;;
50585;SDS011;36542;51.700;8.846;2022-12-07T13:28:38;16.00;;;9.30;;
50585;SDS011;36542;51.700;8.846;2022-12-07T13:33:44;14.83;;;7.43;;
50585;SDS011;36542;51.700;8.846;2022-12-07T13:36:30;12.40;;;7.37;;
50585;SDS011;36542;51.700;8.846;2022-12-07T13:39:10;17.33;;;7.30;;
50585;SDS011;36542;51.700;8.846;2022-12-07T13:41:41;16.50;;;7.80;;
50585;SDS011;36542;51.700;8.846;2022-12-07T13:44:17;17.33;;;8.13;;
50585;SDS011;36542;51.700;8.846;2022-12-07T13:46:53;14.40;;;7.40;;
50585;SDS011;36542;51.700;8.846;2022-12-07T13:49:48;11.77;;;7.67;;
50585;SDS011;36542;51.700;8.846;2022-12-07T13:52:25;18.13;;;8.47;;
50585;SDS011;36542;51.700;8.846;2022-12-07T13:57:24;16.47;;;7.80;;
50585;SDS011;36542;51.700;8.846;2022-12-07T13:59:51;23.10;;;9.00;;
50585;SDS011;36542;51.700;8.846;2022-12-07T14:02:18;14.27;;;9.80;;
50585;SDS011;36542;51.700;8.846;2022-12-07T14:04:51;17.83;;;8.80;;
50585;SDS011;36542;51.700;8.846;2022-12-07T14:07:27;20.93;;;9.23;;
50585;SDS011;36542;51.700;8.846;2022-12-07T14:09:54;14.70;;;8.37;;
50585;SDS011;36542;51.700;8.846;2022-12-07T14:12:24;16.33;;;8.97;;
50585;SDS011;36542;51.700;8.846;2022-12-07T14:14:51;15.10;;;8.47;;
50585;SDS011;36542;51.700;8.846;2022-12-07T14:17:19;21.87;;;9.30;;
50585;SDS011;36542;51.700;8.846;2022-12-07T14:19:56;16.47;;;8.13;;
50585;SDS011;36542;51.700;8.846;2022-12-07T14:22:24;16.00;;;9.03;;
50585;SDS011;36542;51.700;8.846;2022-12-07T14:24:58;18.50;;;8.97;;
50585;SDS011;36542;51.700;8.846;2022-12-07T14:27:29;16.27;;;7.53;;
50585;SDS011;36542;51.700;8.846;2022-12-07T14:29:58;15.93;;;8.43;;
50585;SDS011;36542;51.700;8.846;2022-12-07T14:32:26;15.00;;;7.93;;
50585;SDS011;36542;51.700;8.846;2022-12-07T14:34:58;17.07;;;8.03;;
50585;SDS011;36542;51.700;8.846;2022-12-07T14:37:25;14.87;;;7.67;;
50585;SDS011;36542;51.700;8.846;2022-12-07T14:39:52;15.53;;;7.43;;
50585;SDS011;36542;51.700;8.846;2022-12-07T14:42:18;15.83;;;7.10;;
50585;SDS011;36542;51.700;8.846;2022-12-07T14:44:44;9.63;;;5.20;;
50585;SDS011;36542;51.700;8.846;2022-12-07T14:47:10;11.53;;;5.93;;
50585;SDS011;36542;51.700;8.846;2022-12-07T14:49:36;15.10;;;6.00;;
50585;SDS011;36542;51.700;8.846;2022-12-07T14:52:02;13.53;;;5.67;;
50585;SDS011;36542;51.700;8.846;2022-12-07T14:54:29;14.17;;;6.03;;
50585;SDS011;36542;51.700;8.846;2022-12-07T14:56:57;14.37;;;6.07;;
50585;SDS011;36542;51.700;8.846;2022-12-07T14:59:22;13.47;;;5.93;;
50585;SDS011;36542;51.700;8.846;2022-12-07T15:01:48;12.20;;;5.80;;
50585;SDS011;36542;51.700;8.846;2022-12-07T15:04:14;18.00;;;6.50;;
50585;SDS011;36542;51.700;8.846;2022-12-07T15:06:39;12.03;;;6.53;;
50585;SDS011;36542;51.700;8.846;2022-12-07T15:09:05;13.47;;;6.97;;
50585;SDS011;36542;51.700;8.846;2022-12-07T15:11:31;11.80;;;5.80;;
50585;SDS011;36542;51.700;8.846;2022-12-07T15:13:56;17.13;;;6.07;;
50585;SDS011;36542;51.700;8.846;2022-12-07T15:16:36;12.93;;;6.30;;
50585;SDS011;36542;51.700;8.846;2022-12-07T15:19:04;13.87;;;7.40;;
50585;SDS011;36542;51.700;8.846;2022-12-07T15:21:31;13.63;;;9.33;;
50585;SDS011;36542;51.700;8.846;2022-12-07T15:23:56;18.73;;;9.40;;
50585;SDS011;36542;51.700;8.846;2022-12-07T15:26:22;16.80;;;9.50;;
50585;SDS011;36542;51.700;8.846;2022-12-07T15:28:47;20.93;;;11.43;;
50585;SDS011;36542;51.700;8.846;2022-12-07T15:31:16;20.50;;;10.40;;
50585;SDS011;36542;51.700;8.846;2022-12-07T15:33:43;23.20;;;11.70;;
50585;SDS011;36542;51.700;8.846;2022-12-07T15:36:20;20.47;;;11.87;;
50585;SDS011;36542;51.700;8.846;2022-12-07T15:38:47;26.90;;;12.47;;
50585;SDS011;36542;51.700;8.846;2022-12-07T15:41:13;31.03;;;16.43;;
50585;SDS011;36542;51.700;8.846;2022-12-07T15:43:38;29.80;;;14.50;;
50585;SDS011;36542;51.700;8.846;2022-12-07T15:46:23;20.20;;;13.57;;
50585;SDS011;36542;51.700;8.846;2022-12-07T15:48:48;24.80;;;14.23;;
50585;SDS011;36542;51.700;8.846;2022-12-07T15:51:14;21.77;;;12.57;;
50585;SDS011;36542;51.700;8.846;2022-12-07T15:53:39;29.07;;;14.40;;
50585;SDS011;36542;51.700;8.846;2022-12-07T15:56:05;26.63;;;14.73;;
50585;SDS011;36542;51.700;8.846;2022-12-07T15:58:32;22.97;;;13.80;;
50585;SDS011;36542;51.700;8.846;2022-12-07T16:00:58;24.57;;;12.73;;
50585;SDS011;36542;51.700;8.846;2022-12-07T16:03:23;27.40;;;14.73;;
50585;SDS011;36542;51.700;8.846;2022-12-07T16:05:49;27.60;;;14.93;;
50585;SDS011;36542;51.700;8.846;2022-12-07T16:08:16;24.57;;;13.23;;
50585;SDS011;36542;51.700;8.846;2022-12-07T16:10:41;20.17;;;12.37;;
50585;SDS011;36542;51.700;8.846;2022-12-07T16:13:08;23.90;;;13.47;;
50585;SDS011;36542;51.700;8.846;2022-12-07T16:15:37;21.67;;;12.47;;
50585;SDS011;36542;51.700;8.846;2022-12-07T16:18:06;18.13;;;12.60;;
50585;SDS011;36542;51.700;8.846;2022-12-07T16:20:31;19.47;;;12.67;;
50585;SDS011;36542;51.700;8.846;2022-12-07T16:22:57;20.83;;;12.13;;